San Pedro Sula, Honduras
Current Conditions -  °F | °C
As of 6:00 PM on Thursday 18 Dec 2014 (Local Time) from MHLM Reporting Station
Few Clouds Few Clouds  
Wind Chill: 75°   Ceiling: Unl
Heat Index: 75°   Visibility: 6mi
Dew Point: 70°   Wind: 7mph
Humidity: 83%   Direction: 360°N
Pressure: 29.94"   Gusts: NA
Location:  15.47°N, 88.03°W
Report Text: MHLM 190000Z 36006KT 9999 FEW026 24/21 Q1014 A2994 NOSIG
Loading
Personal Weather Stations






























Interactive Weather Map New forecast layout! Learn more

10-Day Weather Forecast

Advertisements
Track Severe Weather on mobile